メインページ
METAR-TAF:

METAR-TAF

空港 :

対馬空港

対馬, 日本

緯度: 34-17N, 経度: 129-20E, 海抜: 63m

現時点の気象観測

当レポートは45分前の11:00(UTC)に作成
東/北東の風 11kt、最大21ktの突風を伴う、北/北東から東/南東の間で変化する
気温 15°C
湿度 82%
気圧 1017 hPa
視程10km以上
高度1500ftの雲はほとんどない
高度2000ftの雲は散在している
高度2500ftの千切れ雲あり

METAR: RJDT 201100Z 06011G21KT 020V110 9999 FEW015 SCT020 BKN025 15/12 Q1017

時間: 20:45 (11:45 UTC)


TAF: 見つかりません

4,000以上の空港の気象観測と天気予報(METAR報とTAF報)

利用可能な観測所は地図上に黄色い丸と赤い丸で示す。

丸の上にカーソルを重ねると観測所名を参照できる。

次にクリックすると気象観測と天気予報を参照できる。

マップの切り替え:黒色「×」印の緑ボタンをクリックして拡大、「-」印の緑ボタンをクリックして縮小、緑色の三角印をクリックして隣りの地図に切り替え


METAR-TAF: